ROMMA est une association bénévole à but non lucratif. Votre soutien est indispensable : ADHERER à ROMMA ou FAIRE un DON

Le Versoud - (38, Isère)

Vallée du Grésivaudan (220 m)   Longitude: 05° 51' 44" E   Latitude: 45° 13' 06" N Station partenaire n°6
 

Détail journalier du     <<     >>

Température Humidité Pression Vent Dir Rafale Dir. rafale Ensol.
Heure (°C) (%) (hPa) (km/h) (km/h) (min)
01:00 16.389101000---0
02:00 15.791101000---0
03:00 15.491101002SE0
04:00 15.192100900---0
05:00 14.791101000---0
06:00 14.193101000---0
07:00 14.193101000---0
08:00 15.192101000---0
09:00 16.587101000---0
10:00 18.380101000---0
11:00 20.671101006ESE60
12:00 21.370101002ESE10
13:00 22.6631010010O50
14:00 23.959100905ONO60
15:00 24.557100908N60
16:00 25.4521009011ONO60
17:00 26.753100908NO60
18:00 27.1521009010NO60
19:00 26.951100906N60
20:00 26.7531009011NNE60
21:00 23.665100902NNE15
22:00 21.475101000---0
23:00 20.081101102NNE0
minuit 19.283101100---0

Graphique du 29-07-2019

 

Serveur OMMA